China Grove, NC

1:12 PM EST on December 25, 2014 (GMT -0500)
Joe's Weather Garage | Change Station
CLOSE
Current Station
Personal Weather Station
Location: China Grove, NC
Elevation: 800 ft
Nearby Weather Stations

Elev 800 ft 35.60 °N, 80.60 °W | Updated 10 seconds ago

Clear
Clear
55.4 °F
Feels Like 55.4 °F
N
3.2
Wind Variable Wind from West
Gusts 12.0 mph

Today
High -- | Low -- °F
--% Chance of Precip.
Yesterday
High -- | Low -- °F
Precip. -- in
7:29 AM 5:15 PM
Waxing Crescent, 18% visible
Pressure 30.11 in
Visibility 10.0 miles
Clouds Clear
Dew Point 36 °F
Humidity 48%
Rainfall 0.00 in
Snow Depth Not available.
UV 3 out of 12
Pollen .30 out of 12
Air Quality Not available.
Flu Activity Not available.
METAR KRUQ 251755Z AUTO 30007KT 10SM CLR 11/00 A3011 RMK AO2 T01091001 10110 20068

More Conditions Fewer Conditions

Pressure 30.11 in
Visibility 10.0 miles
Clouds Clear
Dew Point 36 °F
Humidity 48%
Rainfall 0.00 in
Snow Depth Not available.
UV 3 out of 12
Pollen .30 out of 12
Air Quality Not available.
Flu Activity Not available.
METAR KRUQ 251755Z AUTO 30007KT 10SM CLR 11/00 A3011 RMK AO2 T01091001 10110 20068

More Conditions Fewer Conditions

10-Day Weather Forecast

Almanac

Astronomy

Dec. 25, 2014 Rise Set
Actual Time
Civil Twilight
Nautical Twilight
Astronomical Twilight
Moon
Length of Visible Light
Length of Day
Tomorrow will be .
, % of the Moon is Illuminated

Today's Extremes

State Highs State Lows

Community

WunderPhotos

Upload Photos

1,780,353 photos uploaded!

WunderBlogs® & News

Nearby

Air Quality

  Air Quality AQ Index Pollutant
Not available.

Snow Depth

Station Depth Elevation

Earthquake Activity

City Distance Mag. Time & Date
Minimum magnitude displayed is 2.5.

Coastal Water Temperatures

Place Temperature

Nearby Weather Stations